Wahpeton, MN

5:51 AM CST on December 16, 2019 (GMT -0600)
Stern

Weather History for KBWP - October, 2019

Change the Weather History Date:

Tuesday, October 22, 2019

  Actual Average (KFFM) Record (KFFM)
Temperature  
Mean Temperature 38 °F -  
Max Temperature 44 °F 53 °F 74 °F (1963)
Min Temperature 32 °F 34 °F 21 °F (1987)
Degree Days  
Heating Degree Days 27    
Moisture  
Dew Point 31 °F    
Average Humidity 74    
Maximum Humidity 93    
Minimum Humidity 57    
Precipitation  
Precipitation 0.00 in - - ()
Sea Level Pressure  
Sea Level Pressure 29.66 in    
Wind  
Wind Speed 22 mph ()    
Max Wind Speed 30 mph    
Max Gust Speed 43 mph    
Visibility 10.0 miles    
Events      
Averages and records for this station are not official NWS values.
T = Trace of Precipitation, MM = Missing Value Source: Averaged Metar Reports

Daily Weather History Graph

Daily Weather History Graph

Search for Another Location

Airport or City:

Astronomy

Oct. 22, 2019 Rise Set
Actual Time 7:53 AM CDT 6:28 PM CDT
Civil Twilight 7:22 AM CDT 6:58 PM CDT
Nautical Twilight 6:47 AM CDT 7:33 PM CDT
Astronomical Twilight 6:12 AM CDT 8:08 PM CDT
Moon 12:35 AM CDT (10/22) 4:04 PM CDT (10/22)
Length of Visible Light 11h 36m
Length of Day
10h 35m
Last Quarter, 37% of the Moon is Illuminated
Oct 22
Last Quarter
Oct 27
New
Nov 4
First Quarter
Nov 12
Full
Nov 19
Last Quarter

Hourly Weather History & Observations

Time (CDT) Temp. Windchill Dew Point Humidity Pressure Visibility Wind Dir Wind Speed Gust Speed Precip Events Conditions
12:15 AM 39.2 °F 28.0 °F 35.6 °F 87% 29.56 in 10.0 mi NNW 26.5 mph 36.8 mph N/A   Unknown
12:35 AM 39.2 °F 28.3 °F 35.6 °F 87% 29.57 in 10.0 mi NNW 25.3 mph 33.4 mph N/A   Unknown
12:55 AM 37.4 °F 25.6 °F 35.6 °F 93% 29.56 in 10.0 mi NNW 26.5 mph 42.6 mph N/A   Unknown
1:15 AM 39.2 °F 29.0 °F 35.6 °F 87% 29.57 in 10.0 mi NNW 21.9 mph 38.0 mph N/A   Unknown
1:35 AM 37.4 °F 25.4 °F 33.8 °F 87% 29.57 in 10.0 mi NNW 27.6 mph 36.8 mph N/A   Unknown
1:55 AM 39.2 °F 29.0 °F 33.8 °F 81% 29.57 in 10.0 mi NW 21.9 mph 32.2 mph N/A   Unknown
2:15 AM 37.4 °F 25.6 °F 33.8 °F 87% 29.58 in 10.0 mi NW 26.5 mph 35.7 mph N/A   Unknown
2:35 AM 39.2 °F 27.8 °F 33.8 °F 81% 29.57 in 10.0 mi NW 27.6 mph 39.1 mph N/A   Unknown
2:55 AM 37.4 °F 26.6 °F 33.8 °F 87% 29.58 in 10.0 mi NNW 21.9 mph 34.5 mph N/A   Unknown
3:15 AM 37.4 °F 25.9 °F 33.8 °F 87% 29.58 in 10.0 mi NW 25.3 mph 32.2 mph N/A   Unknown
3:35 AM 37.4 °F 25.2 °F 33.8 °F 87% 29.58 in 10.0 mi NW 28.8 mph 36.8 mph N/A   Unknown
3:55 AM 37.4 °F 25.6 °F 32.0 °F 81% 29.58 in 10.0 mi NW 26.5 mph 32.2 mph N/A   Unknown
4:15 AM 37.4 °F 25.6 °F 32.0 °F 81% 29.58 in 10.0 mi NW 26.5 mph 35.7 mph N/A   Unknown
4:35 AM 37.4 °F 25.4 °F 32.0 °F 81% 29.58 in 10.0 mi NW 27.6 mph 32.2 mph N/A   Unknown
4:55 AM 37.4 °F 25.6 °F 32.0 °F 81% 29.59 in 10.0 mi NW 26.5 mph 31.1 mph N/A   Unknown
5:15 AM 37.4 °F 25.4 °F 32.0 °F 81% 29.59 in 10.0 mi NW 27.6 mph 33.4 mph N/A   Unknown
5:35 AM 37.4 °F 25.4 °F 32.0 °F 81% 29.60 in 10.0 mi NW 27.6 mph 33.4 mph N/A   Unknown
5:55 AM 37.4 °F 26.6 °F 32.0 °F 81% 29.60 in 10.0 mi NW 21.9 mph 36.8 mph N/A   Unknown
6:15 AM 37.4 °F 25.2 °F 32.0 °F 81% 29.60 in 10.0 mi NW 28.8 mph 38.0 mph N/A   Unknown
6:35 AM 37.4 °F 25.0 °F 30.2 °F 75% 29.61 in 10.0 mi NW 29.9 mph 38.0 mph N/A   Unknown
7:35 AM 35.6 °F 23.2 °F 30.2 °F 81% 29.61 in 10.0 mi NW 26.5 mph 35.7 mph N/A   Unknown
7:55 AM 35.6 °F 24.2 °F 30.2 °F 81% 29.61 in 10.0 mi NW 21.9 mph 29.9 mph N/A   Unknown
8:15 AM 35.6 °F 23.4 °F 30.2 °F 81% 29.62 in 10.0 mi NW 25.3 mph 32.2 mph N/A   Unknown
8:35 AM 35.6 °F 24.5 °F 30.2 °F 81% 29.62 in 10.0 mi NW 20.7 mph 28.8 mph N/A   Unknown
8:55 AM 35.6 °F 23.0 °F 28.4 °F 75% 29.62 in 10.0 mi NW 27.6 mph 35.7 mph N/A   Unknown
9:15 AM 35.6 °F 23.0 °F 28.4 °F 75% 29.63 in 10.0 mi NW 27.6 mph 38.0 mph N/A   Unknown
9:35 AM 35.6 °F 24.2 °F 28.4 °F 75% 29.64 in 10.0 mi NW 21.9 mph 36.8 mph N/A   Unknown
9:55 AM 35.6 °F 23.0 °F 28.4 °F 75% 29.64 in 10.0 mi NW 27.6 mph 31.1 mph N/A   Unknown
10:15 AM 35.6 °F 23.4 °F 28.4 °F 75% 29.65 in 10.0 mi NW 25.3 mph 32.2 mph N/A   Unknown
10:35 AM 37.4 °F 26.1 °F 28.4 °F 70% 29.65 in 10.0 mi NW 24.2 mph 34.5 mph N/A   Unknown
10:55 AM 37.4 °F 26.4 °F 28.4 °F 70% 29.65 in 10.0 mi NW 23.0 mph 31.1 mph N/A   Unknown
11:15 AM 37.4 °F 26.6 °F 28.4 °F 70% 29.65 in 10.0 mi NW 21.9 mph 32.2 mph N/A   Unknown
11:35 AM 39.2 °F 28.7 °F 30.2 °F 70% 29.65 in 10.0 mi NW 23.0 mph 35.7 mph N/A   Unknown
12:15 PM 41.0 °F 30.2 °F 30.2 °F 65% 29.65 in 10.0 mi NW 27.6 mph 36.8 mph N/A   Unknown
12:35 PM 41.0 °F 30.5 °F 30.2 °F 65% 29.65 in 10.0 mi NW 26.5 mph 35.7 mph N/A   Unknown
12:55 PM 41.0 °F 30.2 °F 30.2 °F 65% 29.65 in 10.0 mi NW 27.6 mph 36.8 mph N/A   Unknown
1:15 PM 42.8 °F 33.1 °F 32.0 °F 66% 29.65 in 10.0 mi WNW 25.3 mph 35.7 mph N/A   Unknown
1:35 PM 42.8 °F 32.3 °F 30.2 °F 61% 29.65 in 10.0 mi NW 29.9 mph 40.3 mph N/A   Unknown
1:55 PM 44.6 °F 34.7 °F 30.2 °F 57% 29.65 in 10.0 mi NW 29.9 mph 35.7 mph N/A   Unknown
2:15 PM 42.8 °F 33.1 °F 30.2 °F 61% 29.65 in 10.0 mi NW 25.3 mph 34.5 mph N/A   Unknown
2:35 PM 42.8 °F 33.3 °F 32.0 °F 66% 29.66 in 10.0 mi NW 24.2 mph 31.1 mph N/A   Unknown
2:55 PM 42.8 °F 34.0 °F 30.2 °F 61% 29.66 in 10.0 mi NW 20.7 mph 34.5 mph N/A   Unknown
3:15 PM 42.8 °F 33.1 °F 32.0 °F 66% 29.67 in 10.0 mi WNW 25.3 mph - N/A   Unknown
3:35 PM 42.8 °F 33.8 °F 30.2 °F 61% 29.67 in 10.0 mi NW 21.9 mph 25.3 mph N/A   Unknown
3:55 PM 42.8 °F 33.3 °F 30.2 °F 61% 29.67 in 10.0 mi WNW 24.2 mph 31.1 mph N/A   Unknown
4:35 PM 42.8 °F 34.0 °F 30.2 °F 61% 29.69 in 10.0 mi NW 20.7 mph 29.9 mph N/A   Unknown
4:55 PM 44.6 °F 35.9 °F 30.2 °F 57% 29.69 in 10.0 mi NW 23.0 mph 32.2 mph N/A   Unknown
5:15 PM 44.6 °F 35.9 °F 30.2 °F 57% 29.69 in 10.0 mi NW 23.0 mph 28.8 mph N/A   Unknown
5:35 PM 42.8 °F 34.3 °F 30.2 °F 61% 29.70 in 10.0 mi NW 19.6 mph 26.5 mph N/A   Unknown
5:55 PM 42.8 °F 33.8 °F 30.2 °F 61% 29.71 in 10.0 mi NW 21.9 mph 27.6 mph N/A   Unknown
6:15 PM 42.8 °F 35.4 °F 30.2 °F 61% 29.72 in 10.0 mi NW 15.0 mph - N/A   Unknown
6:35 PM 41.0 °F 32.8 °F 30.2 °F 65% 29.72 in 10.0 mi NW 16.1 mph - N/A   Unknown
6:55 PM 41.0 °F 33.1 °F 30.2 °F 65% 29.73 in 10.0 mi NW 15.0 mph - N/A   Unknown
7:15 PM 41.0 °F 33.1 °F 30.2 °F 65% 29.73 in 10.0 mi NW 15.0 mph - N/A   Unknown
7:35 PM 41.0 °F 32.8 °F 30.2 °F 65% 29.74 in 10.0 mi NW 16.1 mph - N/A   Unknown
7:55 PM 39.2 °F 31.2 °F 30.2 °F 70% 29.74 in 10.0 mi NW 13.8 mph - N/A   Unknown
8:15 PM 39.2 °F 31.6 °F 30.2 °F 70% 29.75 in 10.0 mi WNW 12.7 mph 17.3 mph N/A   Unknown
8:35 PM 39.2 °F 31.6 °F 30.2 °F 70% 29.75 in 10.0 mi NW 12.7 mph - N/A   Unknown
8:55 PM 39.2 °F 31.2 °F 30.2 °F 70% 29.75 in 10.0 mi WNW 13.8 mph - N/A   Unknown
9:15 PM 39.2 °F 31.2 °F 30.2 °F 70% 29.75 in 10.0 mi WNW 13.8 mph 19.6 mph N/A   Unknown
9:55 PM 37.4 °F 30.3 °F 30.2 °F 75% 29.76 in 10.0 mi West 10.4 mph - N/A   Unknown
10:15 PM 35.6 °F 29.2 °F 30.2 °F 81% 29.76 in 10.0 mi West 8.1 mph - N/A   Unknown
10:35 PM 35.6 °F 29.2 °F 30.2 °F 81% 29.76 in 10.0 mi West 8.1 mph - N/A   Unknown
10:55 PM 33.8 °F 27.0 °F 30.2 °F 87% 29.76 in 10.0 mi West 8.1 mph - N/A   Unknown
11:15 PM 32.0 °F 24.2 °F 30.2 °F 93% 29.75 in 10.0 mi WNW 9.2 mph - N/A   Unknown
11:35 PM 32.0 °F 26.4 °F 28.4 °F 87% 29.75 in 10.0 mi NW 5.8 mph - N/A   Unknown
11:55 PM 32.0 °F 25.6 °F 28.4 °F 87% 29.75 in 10.0 mi WNW 6.9 mph - N/A   Unknown